Sunbury-on-Thames, United Kingdom
Current Conditions -  °F | °C
As of 3:50 AM on Wednesday 26 Nov 2014 (Local Time) from EGLL Reporting Station
Haze Haze  
Wind Chill: 46°   Ceiling: 1000
Heat Index: 46°   Visibility: 2.5mi
Dew Point: 45°   Wind: 3mph
Humidity: 93%   Direction: 60°ENE
Pressure: 29.91"   Gusts: NA
Location:  51.42°N, 0.41°W
Report Text: EGLL 260350Z 06003KT 4000 BR FEW002 SCT004 BKN010 08/07 Q1013 TEMPO BKN004
Loading
Personal Weather Stations






























Interactive Weather Map New forecast layout! Learn more

10-Day Weather Forecast

Advertisements
Track Severe Weather on mobile